Time;durP1;ratioP1;P1;durP2;ratioP2;P2;SDS_P1;SDS_P2;PMS_P1;PMS_P2;Temp;Humidity;BMP_temperature;BMP_pressure;BME280_temperature;BME280_humidity;BME280_pressure;Samples;Min_cycle;Max_cycle;Signal;HPM_P1;HPM_P2
2023/02/16 00:01:24;;;;;;;0.68;0.60;;;;;;;;;;4130282;28;20105;-40
2023/02/16 00:03:26;;;;;;;0.90;0.40;;;;;;;;;;4147482;28;20505;-41
2023/02/16 00:05:30;;;;;;;1.08;0.57;;;;;;;;;;4147306;28;20417;-41
2023/02/16 00:07:31;;;;;;;0.80;0.60;;;;;;;;;;4147563;28;20058;-41
2023/02/16 00:09:33;;;;;;;1.33;0.70;;;;;;;;;;4147837;28;20057;-41
2023/02/16 00:13:55;;;;;;;1.10;0.70;;;;;;;;;;4147516;28;20096;-41
2023/02/16 00:15:56;;;;;;;0.98;0.65;;;;;;;;;;4147414;28;20053;-41
2023/02/16 00:17:59;;;;;;;0.85;0.70;;;;;;;;;;4147042;28;20109;-40
2023/02/16 00:20:00;;;;;;;1.38;0.90;;;;;;;;;;4147335;28;20545;-41
2023/02/16 00:22:02;;;;;;;0.75;0.60;;;;;;;;;;4147058;28;20501;-42
2023/02/16 00:24:04;;;;;;;1.17;0.82;;;;;;;;;;4147362;28;20442;-41
2023/02/16 00:26:12;;;;;;;0.93;0.82;;;;;;;;;;4147320;28;20520;-41
2023/02/16 00:28:16;;;;;;;1.17;0.60;;;;;;;;;;4134838;28;20053;-41
2023/02/16 00:30:21;;;;;;;1.08;0.68;;;;;;;;;;4129815;28;20054;-41
2023/02/16 00:32:24;;;;;;;0.70;0.70;;;;;;;;;;4130090;28;20070;-41
2023/02/16 00:34:27;;;;;;;1.05;0.80;;;;;;;;;;4146992;28;20057;-41
2023/02/16 00:36:28;;;;;;;1.05;0.60;;;;;;;;;;4146667;28;20632;-41
2023/02/16 00:38:29;;;;;;;0.77;0.60;;;;;;;;;;4129413;28;20062;-41
2023/02/16 00:40:30;;;;;;;0.90;0.60;;;;;;;;;;4147189;28;20049;-42
2023/02/16 00:42:33;;;;;;;1.08;0.63;;;;;;;;;;4146813;28;20058;-40
2023/02/16 00:44:36;;;;;;;0.95;0.50;;;;;;;;;;4129902;28;20120;-41
2023/02/16 00:46:37;;;;;;;1.08;0.80;;;;;;;;;;4113720;28;20105;-41
2023/02/16 00:48:39;;;;;;;0.55;0.55;;;;;;;;;;4129689;28;20085;-41
2023/02/16 00:50:40;;;;;;;0.60;0.60;;;;;;;;;;4147457;28;20054;-41
2023/02/16 00:52:42;;;;;;;0.60;0.52;;;;;;;;;;4146188;28;20061;-41
2023/02/16 00:54:44;;;;;;;1.00;0.80;;;;;;;;;;4146926;28;20084;-42
2023/02/16 00:56:45;;;;;;;1.00;0.90;;;;;;;;;;4146940;28;20054;-41
2023/02/16 00:58:49;;;;;;;0.68;0.57;;;;;;;;;;4113279;28;20058;-42
2023/02/16 01:00:53;;;;;;;0.80;0.60;;;;;;;;;;4128954;28;20054;-41
2023/02/16 01:02:59;;;;;;;0.82;0.55;;;;;;;;;;4146871;28;20060;-41
2023/02/16 01:05:01;;;;;;;0.90;0.70;;;;;;;;;;4129448;28;20058;-43
2023/02/16 01:11:48;;;;;;;0.95;0.80;;;;;;;;;;4146671;28;20108;-42
2023/02/16 01:13:50;;;;;;;0.55;0.50;;;;;;;;;;4128991;28;20116;-42
2023/02/16 01:15:52;;;;;;;0.60;0.60;;;;;;;;;;4129448;28;20105;-41
2023/02/16 01:17:54;;;;;;;1.70;0.90;;;;;;;;;;4129281;28;20058;-41
2023/02/16 01:19:56;;;;;;;0.77;0.65;;;;;;;;;;4130865;28;20054;-41
2023/02/16 01:21:57;;;;;;;0.65;0.60;;;;;;;;;;4128458;28;20512;-41
2023/02/16 01:24:03;;;;;;;2.13;0.88;;;;;;;;;;4129489;28;20065;-42
2023/02/16 01:26:05;;;;;;;1.35;0.70;;;;;;;;;;4130385;28;20450;-41
2023/02/16 01:28:21;;;;;;;0.80;0.80;;;;;;;;;;4130835;28;20055;-42
2023/02/16 01:30:24;;;;;;;1.33;0.80;;;;;;;;;;4117628;28;20112;-41
2023/02/16 01:32:26;;;;;;;1.45;0.68;;;;;;;;;;4130408;28;20100;-41
2023/02/16 01:34:27;;;;;;;0.75;0.65;;;;;;;;;;4113245;28;20059;-41
2023/02/16 01:36:35;;;;;;;0.85;0.60;;;;;;;;;;4129735;28;20058;-41
2023/02/16 01:38:37;;;;;;;1.15;0.60;;;;;;;;;;4130442;28;20074;-41
2023/02/16 01:40:44;;;;;;;1.02;0.70;;;;;;;;;;4113328;28;20101;-42
2023/02/16 01:42:50;;;;;;;0.75;0.50;;;;;;;;;;4130399;28;20054;-41
2023/02/16 01:44:57;;;;;;;1.08;0.70;;;;;;;;;;4129096;28;20058;-41
2023/02/16 01:47:20;;;;;;;0.70;0.65;;;;;;;;;;4129064;28;20588;-41
2023/02/16 01:49:22;;;;;;;0.75;0.57;;;;;;;;;;4130474;28;20050;-41
2023/02/16 01:51:30;;;;;;;0.70;0.70;;;;;;;;;;4132295;28;20125;-41
2023/02/16 01:53:45;;;;;;;0.57;0.55;;;;;;;;;;4132442;28;20489;-41
2023/02/16 01:55:48;;;;;;;0.73;0.70;;;;;;;;;;4116216;28;20055;-41
2023/02/16 01:58:14;;;;;;;1.00;0.85;;;;;;;;;;4116188;28;20486;-41
2023/02/16 02:00:18;;;;;;;1.23;0.80;;;;;;;;;;4116151;28;20058;-41
2023/02/16 02:02:25;;;;;;;0.73;0.68;;;;;;;;;;4116065;28;20097;-41
2023/02/16 02:07:20;;;;;;;0.60;0.55;;;;;;;;;;4131807;28;20552;-42
2023/02/16 02:09:28;;;;;;;1.00;0.82;;;;;;;;;;4132498;28;20125;-41
2023/02/16 02:11:45;;;;;;;0.88;0.80;;;;;;;;;;4116221;28;20109;-41
2023/02/16 02:13:53;;;;;;;1.17;0.80;;;;;;;;;;4124798;28;20093;-42
2023/02/16 02:15:57;;;;;;;0.95;0.85;;;;;;;;;;4112799;28;20482;-41
2023/02/16 02:17:59;;;;;;;0.65;0.65;;;;;;;;;;4103146;28;20058;-41
2023/02/16 02:20:15;;;;;;;0.82;0.60;;;;;;;;;;4131816;28;20576;-41
2023/02/16 02:25:02;;;;;;;0.60;0.60;;;;;;;;;;4118553;28;20066;-42
2023/02/16 02:27:14;;;;;;;0.95;0.60;;;;;;;;;;4132050;28;20081;-41
2023/02/16 02:29:34;;;;;;;1.00;0.80;;;;;;;;;;4115981;28;20109;-41
2023/02/16 02:31:49;;;;;;;0.95;0.77;;;;;;;;;;4133022;28;20057;-41
2023/02/16 02:33:51;;;;;;;0.63;0.63;;;;;;;;;;4120644;28;20054;-42
2023/02/16 02:36:05;;;;;;;0.75;0.75;;;;;;;;;;4133336;28;20101;-41
2023/02/16 02:38:16;;;;;;;0.90;0.70;;;;;;;;;;4131599;28;20061;-41
2023/02/16 02:40:27;;;;;;;0.75;0.73;;;;;;;;;;4115591;28;20063;-41
2023/02/16 02:42:30;;;;;;;0.68;0.60;;;;;;;;;;4131156;28;20367;-41
2023/02/16 02:44:47;;;;;;;0.85;0.70;;;;;;;;;;4131600;28;20062;-42
2023/02/16 02:46:49;;;;;;;0.82;0.60;;;;;;;;;;4131437;28;20050;-42
2023/02/16 02:48:52;;;;;;;0.95;0.80;;;;;;;;;;4131399;28;20058;-42
2023/02/16 02:53:19;;;;;;;0.73;0.60;;;;;;;;;;4131463;28;20054;-41
2023/02/16 03:02:31;;;;;;;1.33;0.65;;;;;;;;;;4132465;28;20046;-41
2023/02/16 03:04:33;;;;;;;0.82;0.60;;;;;;;;;;4132416;28;20054;-41
2023/02/16 03:06:40;;;;;;;1.00;0.90;;;;;;;;;;4131451;28;20073;-41
2023/02/16 03:08:44;;;;;;;1.10;0.70;;;;;;;;;;4131174;28;20086;-41
2023/02/16 03:13:37;;;;;;;1.17;1.08;;;;;;;;;;4133290;28;20113;-42
2023/02/16 03:15:38;;;;;;;0.90;0.75;;;;;;;;;;4103532;28;20063;-41
2023/02/16 03:29:25;;;;;;;0.70;0.70;;;;;;;;;;4133569;28;20075;-41
2023/02/16 03:31:31;;;;;;;1.77;0.90;;;;;;;;;;4148400;28;20057;-41
2023/02/16 03:33:33;;;;;;;1.17;0.65;;;;;;;;;;4132657;28;20062;-41
2023/02/16 03:35:35;;;;;;;0.73;0.60;;;;;;;;;;4140689;28;20081;-41
2023/02/16 03:37:36;;;;;;;0.82;0.60;;;;;;;;;;4130462;28;20050;-41
2023/02/16 03:41:57;;;;;;;;;;;;;;;;;;4133788;28;20093;-41
2023/02/16 03:43:59;;;;;;;1.08;0.88;;;;;;;;;;4147963;28;20269;-41
2023/02/16 03:46:01;;;;;;;0.95;0.85;;;;;;;;;;4147948;28;20050;-41
2023/02/16 03:48:02;;;;;;;1.05;0.80;;;;;;;;;;4147647;28;20058;-41
2023/02/16 03:50:04;;;;;;;1.38;0.75;;;;;;;;;;4147933;28;20390;-41
2023/02/16 03:52:06;;;;;;;1.00;0.90;;;;;;;;;;4147670;28;20104;-41
2023/02/16 03:54:07;;;;;;;1.15;0.90;;;;;;;;;;4148101;28;20100;-41
2023/02/16 03:56:08;;;;;;;0.95;0.70;;;;;;;;;;4130135;28;20418;-40
2023/02/16 03:58:12;;;;;;;1.02;0.80;;;;;;;;;;4117703;28;20058;-41
2023/02/16 04:00:14;;;;;;;0.75;0.70;;;;;;;;;;4130436;28;20062;-41
2023/02/16 04:02:15;;;;;;;0.88;0.73;;;;;;;;;;4147855;28;20528;-41
2023/02/16 04:04:17;;;;;;;1.15;0.60;;;;;;;;;;4147800;28;20057;-41
2023/02/16 04:06:19;;;;;;;0.73;0.70;;;;;;;;;;4146965;28;20401;-41
2023/02/16 04:08:21;;;;;;;1.00;0.80;;;;;;;;;;4147590;28;20054;-42
2023/02/16 04:10:22;;;;;;;0.50;0.50;;;;;;;;;;4147437;28;20064;-41
2023/02/16 04:12:35;;;;;;;1.63;1.02;;;;;;;;;;4146879;28;20494;-42
2023/02/16 04:14:37;;;;;;;0.98;0.80;;;;;;;;;;4134663;28;20153;-41
2023/02/16 04:16:38;;;;;;;0.80;0.70;;;;;;;;;;4147553;28;20088;-42
2023/02/16 04:18:39;;;;;;;1.25;0.80;;;;;;;;;;4147570;28;20058;-42
2023/02/16 04:20:41;;;;;;;0.80;0.70;;;;;;;;;;4147436;28;20056;-41
2023/02/16 04:22:42;;;;;;;0.70;0.70;;;;;;;;;;4146708;28;20065;-41
2023/02/16 04:24:44;;;;;;;0.77;0.70;;;;;;;;;;4147642;28;20336;-41
2023/02/16 04:26:45;;;;;;;1.00;0.80;;;;;;;;;;4147620;28;20050;-41
2023/02/16 04:28:46;;;;;;;1.45;0.90;;;;;;;;;;4130127;28;20070;-41
2023/02/16 04:30:48;;;;;;;1.20;0.73;;;;;;;;;;4129684;28;20058;-41
2023/02/16 04:32:49;;;;;;;1.20;0.80;;;;;;;;;;4147337;28;20054;-42
2023/02/16 04:34:51;;;;;;;2.05;0.70;;;;;;;;;;4147352;28;20108;-41
2023/02/16 04:36:52;;;;;;;3.25;0.90;;;;;;;;;;4129184;28;20103;-41
2023/02/16 04:38:53;;;;;;;0.95;0.80;;;;;;;;;;4147152;28;20057;-41
2023/02/16 04:40:55;;;;;;;0.90;0.80;;;;;;;;;;4147274;28;20050;-41
2023/02/16 04:42:56;;;;;;;1.80;0.70;;;;;;;;;;4129746;28;20101;-41
2023/02/16 04:44:57;;;;;;;0.70;0.70;;;;;;;;;;4147261;28;20128;-41
2023/02/16 04:46:59;;;;;;;5.18;0.90;;;;;;;;;;4147185;28;20076;-41
2023/02/16 04:49:00;;;;;;;0.85;0.80;;;;;;;;;;4146834;28;20062;-41
2023/02/16 04:51:03;;;;;;;0.93;0.85;;;;;;;;;;4147306;28;20061;-40
2023/02/16 04:53:04;;;;;;;1.02;0.75;;;;;;;;;;4146933;28;20065;-41
2023/02/16 04:55:09;;;;;;;0.63;0.63;;;;;;;;;;4147127;28;20192;-41
2023/02/16 04:57:11;;;;;;;1.00;0.85;;;;;;;;;;4129371;28;20085;-41
2023/02/16 04:59:14;;;;;;;1.00;0.82;;;;;;;;;;4146964;28;20053;-41
2023/02/16 05:01:22;;;;;;;0.98;0.55;;;;;;;;;;4147069;28;20050;-41
2023/02/16 05:03:24;;;;;;;1.20;0.90;;;;;;;;;;4146968;28;20464;-42
2023/02/16 05:05:25;;;;;;;0.60;0.60;;;;;;;;;;4146693;28;20089;-41
2023/02/16 05:07:27;;;;;;;1.08;0.90;;;;;;;;;;4146389;28;20050;-41
2023/02/16 05:09:28;;;;;;;1.17;0.80;;;;;;;;;;4146946;28;20065;-41
2023/02/16 05:16:09;;;;;;;1.02;0.80;;;;;;;;;;4146589;28;20524;-41
2023/02/16 05:18:10;;;;;;;0.80;0.80;;;;;;;;;;4129301;28;20054;-41
2023/02/16 05:20:12;;;;;;;0.93;0.88;;;;;;;;;;4146452;28;20054;-41
2023/02/16 05:22:14;;;;;;;1.67;0.93;;;;;;;;;;4146255;28;20116;-41
2023/02/16 05:24:15;;;;;;;1.02;0.80;;;;;;;;;;4146587;28;20505;-41
2023/02/16 05:26:16;;;;;;;1.25;0.98;;;;;;;;;;4113171;28;20047;-41
2023/02/16 05:28:18;;;;;;;1.00;0.77;;;;;;;;;;4145542;28;20058;-41
2023/02/16 05:30:19;;;;;;;1.48;0.77;;;;;;;;;;4146716;28;20053;-41
2023/02/16 05:32:21;;;;;;;1.15;0.80;;;;;;;;;;4129377;28;20054;-42
2023/02/16 05:34:23;;;;;;;1.10;1.00;;;;;;;;;;4155492;28;20463;-41
2023/02/16 05:36:26;;;;;;;3.00;0.75;;;;;;;;;;4147715;28;20117;-41
2023/02/16 05:38:27;;;;;;;1.00;0.90;;;;;;;;;;4146897;28;20103;-41
2023/02/16 05:40:28;;;;;;;1.00;0.80;;;;;;;;;;4146642;28;20062;-41
2023/02/16 05:42:29;;;;;;;1.38;1.00;;;;;;;;;;4146437;28;20112;-41
2023/02/16 05:44:31;;;;;;;1.83;1.08;;;;;;;;;;4146189;28;20054;-42
2023/02/16 05:46:35;;;;;;;2.45;0.90;;;;;;;;;;4146451;28;20054;-41
2023/02/16 05:48:36;;;;;;;0.63;0.63;;;;;;;;;;4146880;28;20104;-41
2023/02/16 05:50:38;;;;;;;1.05;0.80;;;;;;;;;;4146640;28;20061;-41
2023/02/16 05:52:39;;;;;;;1.13;1.02;;;;;;;;;;4146289;28;20053;-41
2023/02/16 05:54:41;;;;;;;1.48;0.98;;;;;;;;;;4128762;28;20058;-42
2023/02/16 05:56:44;;;;;;;1.75;0.93;;;;;;;;;;4146415;28;20062;-41
2023/02/16 05:58:46;;;;;;;1.38;1.00;;;;;;;;;;4146408;28;20054;-41
2023/02/16 06:00:48;;;;;;;1.45;0.98;;;;;;;;;;4139786;28;20112;-41
2023/02/16 06:02:49;;;;;;;1.67;1.00;;;;;;;;;;4143098;28;20058;-42
2023/02/16 06:04:50;;;;;;;1.98;0.90;;;;;;;;;;4144589;28;20096;-42
2023/02/16 06:06:52;;;;;;;2.80;0.77;;;;;;;;;;4143813;28;20446;-41
2023/02/16 06:08:53;;;;;;;1.23;0.93;;;;;;;;;;4144341;28;20116;-41
2023/02/16 06:10:54;;;;;;;1.95;1.02;;;;;;;;;;4144108;28;20575;-41
2023/02/16 06:12:56;;;;;;;1.30;0.70;;;;;;;;;;4140628;28;20053;-41
2023/02/16 06:14:57;;;;;;;1.13;0.80;;;;;;;;;;4144567;28;20116;-41
2023/02/16 06:17:00;;;;;;;1.63;0.80;;;;;;;;;;4144070;28;20468;-41
2023/02/16 06:19:01;;;;;;;1.92;1.00;;;;;;;;;;4144091;28;20057;-41
2023/02/16 06:21:03;;;;;;;1.20;0.90;;;;;;;;;;4126667;28;20050;-41
2023/02/16 06:23:05;;;;;;;1.38;0.80;;;;;;;;;;4144023;28;20464;-41
2023/02/16 06:25:07;;;;;;;2.38;1.00;;;;;;;;;;4143835;28;20116;-42
2023/02/16 06:27:08;;;;;;;0.73;0.60;;;;;;;;;;4144094;28;20109;-41
2023/02/16 06:29:10;;;;;;;2.58;0.95;;;;;;;;;;4143902;28;20062;-42
2023/02/16 06:31:11;;;;;;;2.20;0.90;;;;;;;;;;4116399;28;20489;-41
2023/02/16 06:33:12;;;;;;;1.83;0.90;;;;;;;;;;4144329;28;20057;-41
2023/02/16 06:35:14;;;;;;;3.25;0.82;;;;;;;;;;4144273;28;20050;-41
2023/02/16 06:37:15;;;;;;;1.10;0.85;;;;;;;;;;4145428;28;20111;-41
2023/02/16 06:39:17;;;;;;;2.10;0.80;;;;;;;;;;4147159;28;20104;-41
2023/02/16 06:41:30;;;;;;;1.65;0.80;;;;;;;;;;4146992;28;20144;-41
2023/02/16 06:43:31;;;;;;;2.50;0.80;;;;;;;;;;4145256;28;20081;-41
2023/02/16 06:45:33;;;;;;;1.83;0.80;;;;;;;;;;4146239;28;20111;-42
2023/02/16 06:47:35;;;;;;;2.45;0.60;;;;;;;;;;4137388;28;20062;-41
2023/02/16 06:49:36;;;;;;;1.10;0.60;;;;;;;;;;4141320;28;20062;-41
2023/02/16 06:51:37;;;;;;;1.77;0.90;;;;;;;;;;4144491;28;20053;-41
2023/02/16 06:53:39;;;;;;;1.23;0.60;;;;;;;;;;4122297;28;20513;-41
2023/02/16 06:55:40;;;;;;;1.65;1.23;;;;;;;;;;4123208;28;20101;-41
2023/02/16 06:57:42;;;;;;;1.33;0.70;;;;;;;;;;4144830;28;20077;-41
2023/02/16 06:59:43;;;;;;;1.58;0.65;;;;;;;;;;4145011;28;20053;-42
2023/02/16 07:01:44;;;;;;;2.75;0.88;;;;;;;;;;4137877;28;20548;-41
2023/02/16 07:03:45;;;;;;;1.33;0.70;;;;;;;;;;4142060;28;20061;-42
2023/02/16 07:05:48;;;;;;;2.00;0.80;;;;;;;;;;4141829;28;20065;-41
2023/02/16 07:07:49;;;;;;;2.05;0.68;;;;;;;;;;4136941;28;20058;-41
2023/02/16 07:09:50;;;;;;;0.95;0.63;;;;;;;;;;4137223;28;20171;-41
2023/02/16 07:11:52;;;;;;;1.38;0.60;;;;;;;;;;4134209;28;21065;-41
2023/02/16 07:13:53;;;;;;;1.25;0.70;;;;;;;;;;4139410;28;20050;-41
2023/02/16 07:15:55;;;;;;;2.60;0.73;;;;;;;;;;4137170;28;20058;-40
2023/02/16 07:17:56;;;;;;;2.17;0.75;;;;;;;;;;4136675;28;20156;-41
2023/02/16 07:19:57;;;;;;;1.00;0.88;;;;;;;;;;4134501;28;20208;-39
2023/02/16 07:21:59;;;;;;;2.28;0.70;;;;;;;;;;4129094;28;20112;-40
2023/02/16 07:24:01;;;;;;;1.65;0.70;;;;;;;;;;4107774;28;20057;-42
2023/02/16 07:26:02;;;;;;;1.23;0.57;;;;;;;;;;4110956;28;20069;-44
2023/02/16 07:28:03;;;;;;;1.13;0.68;;;;;;;;;;4131743;28;20085;-42
2023/02/16 07:30:07;;;;;;;1.27;0.80;;;;;;;;;;4131264;28;21045;-42
2023/02/16 07:32:09;;;;;;;2.33;1.15;;;;;;;;;;4102476;28;20525;-41
2023/02/16 07:34:11;;;;;;;2.95;0.77;;;;;;;;;;4123680;28;20062;-41
2023/02/16 07:36:13;;;;;;;3.58;0.70;;;;;;;;;;4124032;28;20488;-45
2023/02/16 07:38:14;;;;;;;2.20;0.80;;;;;;;;;;4125644;28;20505;-43
2023/02/16 07:40:16;;;;;;;1.85;0.68;;;;;;;;;;4130900;28;20139;-41
2023/02/16 07:42:19;;;;;;;1.17;0.70;;;;;;;;;;4131232;28;20090;-39
2023/02/16 07:44:22;;;;;;;1.00;0.80;;;;;;;;;;4097872;28;20480;-40
2023/02/16 07:46:23;;;;;;;1.77;0.73;;;;;;;;;;4129501;28;20054;-40
2023/02/16 07:48:24;;;;;;;3.50;0.90;;;;;;;;;;4131195;28;20058;-40
2023/02/16 07:50:26;;;;;;;2.72;0.70;;;;;;;;;;4130022;28;20116;-40
2023/02/16 07:52:29;;;;;;;1.70;0.60;;;;;;;;;;4101429;28;21317;-41
2023/02/16 07:54:31;;;;;;;3.00;0.90;;;;;;;;;;4124520;28;20069;-40
2023/02/16 07:56:34;;;;;;;1.23;0.70;;;;;;;;;;4120897;28;20050;-41
2023/02/16 07:58:35;;;;;;;1.02;0.80;;;;;;;;;;4116648;28;20069;-39
2023/02/16 08:00:36;;;;;;;0.95;0.55;;;;;;;;;;4101174;28;20062;-41
2023/02/16 08:02:39;;;;;;;1.40;0.70;;;;;;;;;;4100532;28;20058;-42
2023/02/16 08:04:40;;;;;;;1.77;0.63;;;;;;;;;;4115929;28;20112;-42
2023/02/16 08:06:42;;;;;;;1.27;0.63;;;;;;;;;;4132107;28;20049;-41
2023/02/16 08:08:44;;;;;;;0.93;0.50;;;;;;;;;;4127682;28;20234;-39
2023/02/16 08:10:46;;;;;;;0.75;0.45;;;;;;;;;;4105067;28;20054;-42
2023/02/16 08:12:48;;;;;;;1.30;0.60;;;;;;;;;;4114885;28;20054;-39
2023/02/16 08:14:49;;;;;;;2.00;0.47;;;;;;;;;;4113224;28;20584;-42
2023/02/16 08:16:51;;;;;;;1.60;1.05;;;;;;;;;;4106656;28;20503;-42
2023/02/16 08:18:53;;;;;;;3.03;0.77;;;;;;;;;;4120033;28;20696;-40
2023/02/16 08:20:56;;;;;;;2.47;0.80;;;;;;;;;;4118946;28;21322;-41
2023/02/16 08:22:58;;;;;;;2.70;0.70;;;;;;;;;;4120021;28;20112;-42
2023/02/16 08:24:59;;;;;;;0.80;0.50;;;;;;;;;;4100265;28;21256;-42
2023/02/16 08:27:02;;;;;;;5.55;0.70;;;;;;;;;;4118943;28;20391;-46
2023/02/16 08:29:05;;;;;;;2.40;0.63;;;;;;;;;;4113178;28;20968;-44
2023/02/16 08:31:07;;;;;;;2.85;0.68;;;;;;;;;;4116441;28;20776;-44
2023/02/16 08:33:09;;;;;;;1.25;0.70;;;;;;;;;;4115586;28;20583;-40
2023/02/16 08:35:10;;;;;;;2.28;0.80;;;;;;;;;;4117278;28;20062;-43
2023/02/16 08:37:12;;;;;;;1.85;0.68;;;;;;;;;;4111330;28;20129;-42
2023/02/16 08:39:18;;;;;;;3.42;0.73;;;;;;;;;;4111233;28;20053;-41
2023/02/16 08:41:21;;;;;;;0.98;0.65;;;;;;;;;;4120116;28;20077;-44
2023/02/16 08:43:22;;;;;;;6.60;0.70;;;;;;;;;;4123414;28;20057;-41
2023/02/16 08:45:24;;;;;;;3.10;0.80;;;;;;;;;;4112428;28;20058;-40
2023/02/16 08:47:26;;;;;;;2.47;0.80;;;;;;;;;;4123289;28;20096;-42
2023/02/16 08:49:27;;;;;;;4.82;0.90;;;;;;;;;;4113154;28;21046;-41
2023/02/16 08:51:31;;;;;;;3.15;0.90;;;;;;;;;;4092433;28;20062;-42
2023/02/16 08:53:33;;;;;;;1.52;0.75;;;;;;;;;;4112804;28;20643;-45
2023/02/16 08:55:34;;;;;;;1.27;0.73;;;;;;;;;;4111269;28;20665;-41
2023/02/16 08:57:36;;;;;;;1.77;0.88;;;;;;;;;;4120286;28;21381;-45
2023/02/16 08:59:37;;;;;;;8.43;1.13;;;;;;;;;;4098251;28;20133;-40
2023/02/16 09:01:39;;;;;;;1.15;0.70;;;;;;;;;;4093609;28;20829;-40
2023/02/16 09:03:41;;;;;;;1.05;0.50;;;;;;;;;;4113071;28;20058;-40
2023/02/16 09:05:48;;;;;;;1.65;0.88;;;;;;;;;;4114283;28;20110;-40
2023/02/16 09:07:50;;;;;;;2.35;0.95;;;;;;;;;;4118195;28;21327;-42
2023/02/16 09:09:51;;;;;;;1.60;0.80;;;;;;;;;;4118953;28;20574;-44
2023/02/16 09:11:53;;;;;;;3.40;0.90;;;;;;;;;;4117802;28;20058;-40
2023/02/16 09:13:55;;;;;;;2.97;0.93;;;;;;;;;;4116581;28;20549;-43
2023/02/16 09:16:02;;;;;;;2.95;0.80;;;;;;;;;;4115470;28;21310;-42
2023/02/16 09:18:04;;;;;;;2.85;0.98;;;;;;;;;;4104673;28;20547;-46
2023/02/16 09:20:06;;;;;;;4.32;1.10;;;;;;;;;;4116432;28;20062;-44
2023/02/16 09:22:07;;;;;;;1.58;0.90;;;;;;;;;;4115509;28;20616;-42
2023/02/16 09:24:10;;;;;;;2.15;0.75;;;;;;;;;;4098015;28;20054;-42
2023/02/16 09:26:11;;;;;;;1.58;0.68;;;;;;;;;;4115618;28;20115;-43
2023/02/16 09:28:13;;;;;;;1.85;1.13;;;;;;;;;;4114728;28;20086;-40
2023/02/16 09:30:14;;;;;;;4.97;0.93;;;;;;;;;;4111193;28;20108;-41
2023/02/16 09:32:16;;;;;;;1.80;0.80;;;;;;;;;;4118140;28;20058;-42
2023/02/16 09:34:20;;;;;;;2.63;0.68;;;;;;;;;;4112541;28;20058;-43
2023/02/16 09:36:21;;;;;;;2.78;1.00;;;;;;;;;;4119543;28;20100;-41
2023/02/16 09:38:23;;;;;;;3.20;0.77;;;;;;;;;;4105605;28;20578;-41
2023/02/16 09:40:26;;;;;;;2.20;0.70;;;;;;;;;;4126508;28;20057;-44
2023/02/16 09:42:30;;;;;;;2.95;1.70;;;;;;;;;;4122761;28;20069;-41
2023/02/16 09:44:36;;;;;;;1.50;0.73;;;;;;;;;;4124656;28;20425;-40
2023/02/16 09:46:37;;;;;;;2.22;0.88;;;;;;;;;;4119463;28;20061;-42
2023/02/16 09:48:44;;;;;;;1.60;0.80;;;;;;;;;;4124489;28;20058;-41
2023/02/16 09:50:46;;;;;;;2.88;1.10;;;;;;;;;;4121519;28;20065;-40
2023/02/16 09:53:12;;;;;;;2.78;0.90;;;;;;;;;;4105592;28;20054;-40
2023/02/16 09:55:15;;;;;;;3.83;0.95;;;;;;;;;;4123105;28;20058;-41
2023/02/16 09:57:20;;;;;;;1.83;0.82;;;;;;;;;;4126875;28;20041;-40
2023/02/16 09:59:41;;;;;;;1.42;0.80;;;;;;;;;;4117503;28;20053;-40
2023/02/16 10:01:51;;;;;;;4.28;0.80;;;;;;;;;;4093743;28;20062;-41
2023/02/16 10:04:02;;;;;;;1.55;0.77;;;;;;;;;;4122957;28;20109;-41
2023/02/16 10:06:12;;;;;;;;;;;;;;;;;;4104296;28;20211;-40
2023/02/16 10:08:19;;;;;;;2.45;0.88;;;;;;;;;;4127043;28;20392;-41
2023/02/16 10:10:24;;;;;;;1.70;1.00;;;;;;;;;;4106863;28;20054;-40
2023/02/16 10:12:32;;;;;;;2.88;0.75;;;;;;;;;;4112404;28;20058;-42
2023/02/16 10:14:46;;;;;;;5.55;1.33;;;;;;;;;;4110581;28;20141;-40
2023/02/16 10:16:55;;;;;;;2.20;0.95;;;;;;;;;;4119733;28;20076;-42
2023/02/16 10:18:57;;;;;;;2.33;0.88;;;;;;;;;;4101168;28;20117;-40
2023/02/16 10:21:01;;;;;;;1.98;1.10;;;;;;;;;;4121735;28;20057;-40
2023/02/16 10:23:41;;;;;;;1.50;0.90;;;;;;;;;;4089392;28;20073;-40
2023/02/16 10:25:44;;;;;;;;;;;;;;;;;;4072425;28;20585;-41
2023/02/16 10:27:51;;;;;;;2.75;1.02;;;;;;;;;;4061337;28;20305;-40
2023/02/16 10:29:53;;;;;;;1.70;0.88;;;;;;;;;;4114142;28;20367;-42
2023/02/16 10:32:09;;;;;;;2.83;0.90;;;;;;;;;;4094477;28;20149;-43
2023/02/16 10:34:19;;;;;;;2.08;0.85;;;;;;;;;;4110819;28;20123;-40
2023/02/16 10:36:49;;;;;;;1.30;0.90;;;;;;;;;;4104842;28;20129;-40
2023/02/16 10:38:58;;;;;;;2.90;1.10;;;;;;;;;;4113426;28;20637;-40
2023/02/16 10:41:36;;;;;;;2.03;0.80;;;;;;;;;;4120945;28;20054;-41
2023/02/16 10:43:50;;;;;;;2.30;1.10;;;;;;;;;;4086648;28;20558;-45
2023/02/16 10:45:53;;;;;;;2.10;0.93;;;;;;;;;;4105801;28;20078;-42
2023/02/16 10:47:55;;;;;;;2.00;1.10;;;;;;;;;;4118341;28;20147;-41
2023/02/16 10:49:56;;;;;;;1.67;1.05;;;;;;;;;;4119047;28;20061;-42
2023/02/16 10:51:59;;;;;;;5.75;1.10;;;;;;;;;;4099571;28;20146;-43
2023/02/16 10:54:04;;;;;;;3.30;1.20;;;;;;;;;;4103896;28;21405;-41
2023/02/16 10:56:43;;;;;;;1.98;1.10;;;;;;;;;;4115641;28;20120;-41
2023/02/16 10:58:45;;;;;;;1.95;1.10;;;;;;;;;;4123105;28;20053;-40
2023/02/16 11:00:53;;;;;;;3.35;1.13;;;;;;;;;;4103073;28;20644;-40
2023/02/16 11:02:55;;;;;;;1.30;1.08;;;;;;;;;;4119328;28;20071;-41
2023/02/16 11:04:57;;;;;;;4.78;1.75;;;;;;;;;;4078965;28;20055;-43
2023/02/16 11:07:14;;;;;;;2.22;1.15;;;;;;;;;;4121812;28;20149;-41
2023/02/16 11:09:16;;;;;;;3.15;1.75;;;;;;;;;;4124116;28;20777;-45
2023/02/16 11:11:18;;;;;;;3.10;1.10;;;;;;;;;;4105739;28;20054;-41
2023/02/16 11:13:32;;;;;;;5.30;1.45;;;;;;;;;;4113375;28;20058;-41
2023/02/16 11:15:36;;;;;;;4.40;1.10;;;;;;;;;;4127429;28;20066;-44
2023/02/16 11:17:58;;;;;;;1.70;1.30;;;;;;;;;;4113834;28;20116;-42
2023/02/16 11:20:08;;;;;;;2.47;1.40;;;;;;;;;;4131133;28;20053;-43
2023/02/16 11:22:25;;;;;;;1.98;1.60;;;;;;;;;;4096671;28;20446;-43
2023/02/16 11:24:36;;;;;;;1.90;1.35;;;;;;;;;;4133773;28;20339;-41
2023/02/16 11:26:37;;;;;;;1.40;1.20;;;;;;;;;;4111348;28;20100;-42
2023/02/16 11:28:41;;;;;;;4.13;1.30;;;;;;;;;;4124401;28;20081;-41
2023/02/16 11:30:43;;;;;;;2.95;1.67;;;;;;;;;;4114425;28;20054;-42
2023/02/16 11:32:45;;;;;;;2.45;1.42;;;;;;;;;;4124162;28;20145;-45
2023/02/16 11:34:50;;;;;;;3.17;1.45;;;;;;;;;;4111979;28;20506;-41
2023/02/16 11:37:00;;;;;;;1.98;1.25;;;;;;;;;;4115775;28;20054;-40
2023/02/16 11:39:24;;;;;;;1.95;1.30;;;;;;;;;;4119495;28;20073;-41
2023/02/16 11:41:27;;;;;;;2.25;1.38;;;;;;;;;;4132536;28;20116;-41
2023/02/16 11:43:32;;;;;;;2.65;1.70;;;;;;;;;;4129379;28;20509;-42
2023/02/16 11:45:35;;;;;;;4.30;1.70;;;;;;;;;;4132059;28;20104;-40
2023/02/16 11:47:39;;;;;;;3.30;1.60;;;;;;;;;;4117999;28;20308;-40
2023/02/16 11:49:41;;;;;;;2.45;1.60;;;;;;;;;;4115302;28;20061;-42
2023/02/16 11:51:42;;;;;;;1.50;1.25;;;;;;;;;;4081636;28;20059;-41
2023/02/16 11:53:44;;;;;;;1.80;1.30;;;;;;;;;;4108428;28;21506;-40
2023/02/16 11:55:48;;;;;;;1.95;1.48;;;;;;;;;;4127724;28;20491;-40
2023/02/16 11:57:50;;;;;;;1.95;1.75;;;;;;;;;;4110249;28;20058;-41
2023/02/16 11:59:52;;;;;;;2.13;1.50;;;;;;;;;;4122299;28;20637;-39
2023/02/16 12:02:01;;;;;;;3.60;1.80;;;;;;;;;;4126720;28;21622;-41
2023/02/16 12:04:17;;;;;;;2.33;1.55;;;;;;;;;;4094405;28;20703;-40
2023/02/16 12:06:48;;;;;;;3.42;1.70;;;;;;;;;;4126441;28;20651;-40
2023/02/16 12:09:02;;;;;;;3.20;1.95;;;;;;;;;;4092326;28;20068;-41
2023/02/16 12:11:18;;;;;;;2.08;1.73;;;;;;;;;;4123868;28;20459;-42
2023/02/16 12:13:40;;;;;;;4.82;1.67;;;;;;;;;;4110422;28;20062;-42
2023/02/16 12:16:04;;;;;;;2.22;1.80;;;;;;;;;;4100650;28;20130;-44
2023/02/16 12:18:24;;;;;;;2.88;1.55;;;;;;;;;;4097646;28;20087;-43
2023/02/16 12:20:41;;;;;;;4.35;1.60;;;;;;;;;;4119105;28;20511;-46
2023/02/16 12:22:48;;;;;;;2.80;1.70;;;;;;;;;;4123155;28;20102;-42
2023/02/16 12:25:00;;;;;;;5.80;1.83;;;;;;;;;;4120747;28;20066;-44
2023/02/16 12:27:07;;;;;;;2.95;1.90;;;;;;;;;;4118970;28;20366;-43
2023/02/16 12:29:23;;;;;;;2.88;1.63;;;;;;;;;;4105943;28;21767;-42
2023/02/16 12:31:51;;;;;;;2.78;1.60;;;;;;;;;;4106316;28;20090;-40
2023/02/16 12:34:32;;;;;;;2.38;1.75;;;;;;;;;;4117428;28;20395;-40
2023/02/16 12:36:48;;;;;;;2.55;1.80;;;;;;;;;;4120941;28;20053;-41
2023/02/16 12:39:04;;;;;;;5.10;1.90;;;;;;;;;;4120935;28;20116;-41
2023/02/16 12:41:31;;;;;;;2.33;1.80;;;;;;;;;;4119281;28;20104;-40
2023/02/16 12:43:53;;;;;;;2.45;1.75;;;;;;;;;;4122544;28;20061;-42
2023/02/16 12:45:55;;;;;;;1.98;1.52;;;;;;;;;;4101448;28;20051;-40
2023/02/16 12:47:59;;;;;;;1.95;1.60;;;;;;;;;;4105476;28;20104;-42
2023/02/16 12:50:02;;;;;;;9.38;2.10;;;;;;;;;;4103437;28;20058;-40
2023/02/16 12:52:11;;;;;;;2.55;2.00;;;;;;;;;;4121587;28;20057;-39
2023/02/16 12:54:18;;;;;;;2.58;2.10;;;;;;;;;;4105724;28;20153;-40
2023/02/16 12:56:25;;;;;;;2.22;1.63;;;;;;;;;;4121174;28;20108;-39
2023/02/16 12:58:28;;;;;;;2.38;1.95;;;;;;;;;;4122869;28;20061;-39
2023/02/16 13:00:46;;;;;;;2.85;1.58;;;;;;;;;;4099510;28;20244;-41
2023/02/16 13:02:52;;;;;;;2.83;1.73;;;;;;;;;;4101998;28;20731;-41
2023/02/16 13:05:09;;;;;;;2.75;1.70;;;;;;;;;;4116954;28;21134;-41
2023/02/16 13:07:22;;;;;;;3.28;2.10;;;;;;;;;;4122395;28;20563;-41
2023/02/16 13:09:45;;;;;;;3.13;2.17;;;;;;;;;;4107952;28;20113;-41
2023/02/16 13:11:49;;;;;;;2.33;2.03;;;;;;;;;;4105494;28;20054;-42
2023/02/16 13:13:52;;;;;;;3.42;2.20;;;;;;;;;;4115660;28;20560;-43